Time;durP1;ratioP1;P1;durP2;ratioP2;P2;SDS_P1;SDS_P2;PMS_P1;PMS_P2;Temp;Humidity;BMP_temperature;BMP_pressure;BME280_temperature;BME280_humidity;BME280_pressure;Samples;Min_cycle;Max_cycle;Signal;HPM_P1;HPM_P2
2023/08/10 00:00:36;;;;;;;2.13;1.40;;;;;;;14.04;81.23;102003.94;4967250;28;20019;-89
2023/08/10 00:03:02;;;;;;;4.25;1.60;;;;;;;14.04;80.20;101998.72;4967902;28;20084;-89
2023/08/10 00:05:27;;;;;;;2.95;1.30;;;;;;;14.04;79.09;102001.34;4966886;28;20031;-88
2023/08/10 00:07:53;;;;;;;4.18;1.40;;;;;;;14.04;77.93;102003.09;4965504;28;20477;-88
2023/08/10 00:10:18;;;;;;;2.92;1.50;;;;;;;14.07;77.97;102001.28;4966974;28;20026;-89
2023/08/10 00:12:43;;;;;;;1.90;1.20;;;;;;;14.09;77.25;102007.34;4960084;28;20501;-89
2023/08/10 00:15:09;;;;;;;3.00;1.60;;;;;;;14.10;76.91;101998.59;4967745;28;20411;-89
2023/08/10 00:17:34;;;;;;;2.30;1.40;;;;;;;14.12;76.87;102003.78;4968645;28;20046;-89
2023/08/10 00:20:00;;;;;;;3.67;1.45;;;;;;;14.16;77.67;102001.97;4968647;28;20041;-89
2023/08/10 00:22:25;;;;;;;3.15;1.50;;;;;;;14.17;77.08;102008.94;4964565;28;20015;-89
2023/08/10 00:24:51;;;;;;;2.33;1.30;;;;;;;14.17;78.19;102003.72;4964213;28;20066;-89
2023/08/10 00:27:17;;;;;;;2.83;1.50;;;;;;;14.14;76.74;102015.09;4964063;28;20040;-89
2023/08/10 00:29:42;;;;;;;3.05;1.45;;;;;;;14.15;77.33;102010.72;4967325;28;20034;-89
2023/08/10 00:32:07;;;;;;;2.75;1.60;;;;;;;14.17;75.98;102008.94;4962792;28;20379;-89
2023/08/10 00:34:32;;;;;;;3.97;1.60;;;;;;;14.19;76.96;102012.34;4962071;28;20030;-88
2023/08/10 00:36:58;;;;;;;3.15;1.63;;;;;;;14.19;77.24;102000.16;4961229;28;20482;-89
2023/08/10 00:39:23;;;;;;;3.50;1.60;;;;;;;14.23;78.17;102008.78;4948625;28;20034;-89
2023/08/10 00:41:49;;;;;;;3.75;1.55;;;;;;;14.21;77.71;102000.97;4957736;28;20035;-89
2023/08/10 00:44:16;;;;;;;2.50;1.60;;;;;;;14.23;78.02;102001.81;4963545;28;20395;-89
2023/08/10 00:46:42;;;;;;;3.75;2.00;;;;;;;14.23;77.36;102008.78;4959857;28;20034;-89
2023/08/10 00:49:07;;;;;;;3.08;1.52;;;;;;;14.25;79.62;102005.25;4967203;28;20333;-89
2023/08/10 00:51:32;;;;;;;2.28;1.65;;;;;;;14.24;80.08;102005.28;4964213;28;20556;-89
2023/08/10 00:53:58;;;;;;;3.92;1.70;;;;;;;14.23;81.17;102003.53;4957228;28;20026;-89
2023/08/10 00:56:23;;;;;;;3.88;1.52;;;;;;;14.21;81.30;102000.09;4964939;28;20042;-89
2023/08/10 00:58:50;;;;;;;3.58;1.50;;;;;;;14.17;80.93;101996.69;4963431;28;20081;-89
2023/08/10 01:01:15;;;;;;;3.08;1.67;;;;;;;14.16;80.69;102001.97;4969770;28;20138;-89
2023/08/10 01:03:40;;;;;;;4.07;1.60;;;;;;;14.17;81.53;102004.56;4965729;28;20094;-89
2023/08/10 01:06:14;;;;;;;4.03;1.88;;;;;;;14.16;81.45;101999.38;4968340;28;20037;-89
2023/08/10 01:09:02;;;;;;;3.20;1.90;;;;;;;14.17;81.58;101996.69;4972940;28;20049;-89
2023/08/10 01:11:32;;;;;;;3.08;1.63;;;;;;;14.19;81.01;101994.03;4967379;28;20400;-89
2023/08/10 01:14:10;;;;;;;4.07;1.52;;;;;;;14.16;81.43;102001.97;4972923;28;20027;-88
2023/08/10 01:16:40;;;;;;;2.85;1.60;;;;;;;14.14;81.81;101998.53;4970952;28;20034;-89
2023/08/10 01:19:19;;;;;;;3.72;1.70;;;;;;;14.13;81.57;101992.41;4973840;28;20038;-89
2023/08/10 01:21:59;;;;;;;3.05;1.80;;;;;;;14.14;81.58;102001.16;4973353;28;20537;-89
2023/08/10 01:24:30;;;;;;;3.58;1.98;;;;;;;14.14;82.75;101998.53;4970297;28;20022;-89
2023/08/10 01:26:56;;;;;;;2.50;2.00;;;;;;;14.15;82.47;101992.41;4972788;28;20086;-88
2023/08/10 01:29:22;;;;;;;3.30;1.58;;;;;;;14.14;82.75;102006.38;4971918;28;20101;-89
2023/08/10 01:31:48;;;;;;;3.05;1.88;;;;;;;14.14;82.36;102001.16;4970631;28;20101;-89
2023/08/10 01:34:13;;;;;;;3.08;1.58;;;;;;;14.16;82.38;102015.91;4968544;28;20066;-88
2023/08/10 01:36:38;;;;;;;3.47;1.95;;;;;;;14.16;82.11;102013.28;4967164;28;20638;-89
2023/08/10 01:39:05;;;;;;;2.95;1.83;;;;;;;14.16;81.61;102009.84;4964530;28;20022;-89
2023/08/10 01:41:30;;;;;;;2.90;1.92;;;;;;;14.17;81.12;102009.78;4965554;28;20039;-90
2023/08/10 01:43:56;;;;;;;2.75;1.70;;;;;;;14.19;81.70;102012.34;4967798;28;20041;-88
2023/08/10 01:46:24;;;;;;;2.67;1.83;;;;;;;14.20;82.19;102009.72;4967035;28;20106;-89
2023/08/10 01:48:53;;;;;;;2.55;1.88;;;;;;;14.20;81.16;102012.34;4966155;28;20038;-89
2023/08/10 01:51:23;;;;;;;3.75;1.77;;;;;;;14.21;82.90;102011.44;4952301;28;20046;-89
2023/08/10 01:53:50;;;;;;;5.63;1.83;;;;;;;14.19;82.04;102004.50;4971011;28;20104;-88
2023/08/10 01:56:17;;;;;;;3.15;1.77;;;;;;;14.15;82.31;102003.72;4970150;28;20542;-89
2023/08/10 01:58:42;;;;;;;3.13;2.05;;;;;;;14.14;82.85;102004.63;4951648;28;20058;-88
2023/08/10 02:01:08;;;;;;;3.80;2.08;;;;;;;14.13;82.14;102005.50;4969157;28;20062;-89
2023/08/10 02:03:33;;;;;;;3.95;2.30;;;;;;;14.14;83.02;102006.38;4971845;28;20026;-89
2023/08/10 02:05:58;;;;;;;3.50;2.25;;;;;;;14.14;83.14;102009.84;4972865;28;20034;-89
2023/08/10 02:08:24;;;;;;;2.65;1.83;;;;;;;14.14;83.17;102004.63;4971539;28;20129;-89
2023/08/10 02:10:49;;;;;;;4.03;2.05;;;;;;;14.10;83.16;102005.56;4969549;28;20106;-89
2023/08/10 02:13:14;;;;;;;3.78;2.00;;;;;;;14.05;83.09;102004.84;4968543;28;20034;-89
2023/08/10 02:15:42;;;;;;;2.85;2.10;;;;;;;13.98;83.08;102004.09;4971439;28;20026;-88
2023/08/10 02:18:08;;;;;;;3.42;1.98;;;;;;;13.94;83.61;101997.22;4972173;28;20030;-88
2023/08/10 02:20:33;;;;;;;3.08;2.00;;;;;;;13.93;84.19;102003.34;4971265;28;20027;-89
2023/08/10 02:22:58;;;;;;;4.30;2.15;;;;;;;13.90;84.32;102006.00;4970365;28;20030;-89
2023/08/10 02:25:24;;;;;;;3.55;2.15;;;;;;;13.89;84.42;102012.13;4969489;28;20022;-89
2023/08/10 02:27:52;;;;;;;4.53;2.00;;;;;;;13.84;84.80;102007.00;4970431;28;20034;-89
2023/08/10 02:30:18;;;;;;;3.33;1.95;;;;;;;13.80;85.26;102011.44;4971148;28;20049;-89
2023/08/10 02:32:43;;;;;;;3.83;1.83;;;;;;;13.78;85.27;102002.75;4971166;28;20502;-89
2023/08/10 02:35:09;;;;;;;3.33;2.05;;;;;;;13.77;85.70;102006.28;4970522;28;20023;-88
2023/08/10 02:37:35;;;;;;;3.47;2.20;;;;;;;13.74;85.94;102011.56;4970098;28;20035;-86
2023/08/10 02:40:01;;;;;;;2.38;1.77;;;;;;;13.72;86.13;102009.88;4974293;28;20050;-89
2023/08/10 02:42:26;;;;;;;3.15;2.00;;;;;;;13.68;86.13;102011.66;4976262;28;20018;-89
2023/08/10 02:44:52;;;;;;;3.67;2.20;;;;;;;13.66;86.12;102019.56;4967051;28;20037;-89
2023/08/10 02:47:18;;;;;;;4.78;2.03;;;;;;;13.66;85.53;102023.94;4970656;28;20053;-89
2023/08/10 02:49:43;;;;;;;2.85;1.90;;;;;;;13.64;84.70;102020.50;4969748;28;20022;-89
2023/08/10 02:52:09;;;;;;;3.53;2.03;;;;;;;13.60;84.66;102024.03;4971127;28;20043;-89
2023/08/10 02:54:35;;;;;;;5.22;2.30;;;;;;;13.51;84.43;102020.72;4970444;28;20113;-89
2023/08/10 02:57:00;;;;;;;3.35;2.10;;;;;;;13.47;85.25;102024.28;4968135;28;20027;-88
2023/08/10 02:59:25;;;;;;;3.20;2.20;;;;;;;13.44;84.86;102024.34;4969412;28;20097;-88
2023/08/10 03:01:51;;;;;;;3.05;2.08;;;;;;;13.39;84.77;102020.91;4974517;28;20027;-88
2023/08/10 03:04:16;;;;;;;3.78;2.20;;;;;;;13.35;84.85;102024.47;4975503;28;20082;-88
2023/08/10 03:06:42;;;;;;;4.95;2.22;;;;;;;13.31;85.21;102020.22;4958980;28;20034;-89
2023/08/10 03:09:07;;;;;;;5.75;2.50;;;;;;;13.25;85.77;102029.00;4972958;28;20341;-88
2023/08/10 03:11:32;;;;;;;4.57;2.60;;;;;;;13.21;85.92;102028.19;4974170;28;20026;-88
2023/08/10 03:13:58;;;;;;;5.20;2.50;;;;;;;13.23;86.44;102024.69;4970812;28;20069;-89
2023/08/10 03:16:23;;;;;;;4.22;2.80;;;;;;;13.23;86.16;102032.53;4966210;28;20086;-88
2023/08/10 03:18:49;;;;;;;5.70;2.95;;;;;;;13.22;86.68;102036.91;4964995;28;20062;-89
2023/08/10 03:21:14;;;;;;;5.03;2.63;;;;;;;13.19;86.94;102031.75;4974925;28;20374;-89
2023/08/10 03:23:39;;;;;;;5.00;3.03;;;;;;;13.18;86.55;102028.25;4974166;28;20029;-88
2023/08/10 03:26:04;;;;;;;5.45;3.08;;;;;;;13.20;87.13;102039.53;4975877;28;20034;-89
2023/08/10 03:28:30;;;;;;;5.88;3.70;;;;;;;13.18;87.33;102038.69;4973944;28;20030;-88
2023/08/10 03:30:55;;;;;;;6.18;3.30;;;;;;;13.17;87.35;102042.19;4972251;28;20063;-89
2023/08/10 03:33:20;;;;;;;7.85;3.42;;;;;;;13.16;87.46;102040.47;4969594;28;20386;-88
2023/08/10 03:35:46;;;;;;;6.55;3.28;;;;;;;13.14;87.99;102042.28;4970702;28;20042;-88
2023/08/10 03:38:12;;;;;;;5.35;3.20;;;;;;;13.11;87.81;102037.09;4969691;28;20050;-89
2023/08/10 03:40:37;;;;;;;4.82;3.30;;;;;;;13.10;88.23;102037.97;4970586;28;20031;-89
2023/08/10 03:43:03;;;;;;;4.88;3.10;;;;;;;13.13;88.22;102039.66;4969625;28;20038;-89
2023/08/10 03:45:28;;;;;;;5.75;3.40;;;;;;;13.13;88.28;102039.66;4968879;28;20031;-88
2023/08/10 03:47:54;;;;;;;6.20;3.03;;;;;;;13.12;88.37;102030.09;4969596;28;20502;-88
2023/08/10 03:50:19;;;;;;;5.20;3.10;;;;;;;13.11;88.28;102031.88;4968268;28;20073;-89
2023/08/10 03:52:45;;;;;;;6.75;3.38;;;;;;;13.10;88.55;102037.97;4966939;28;20046;-88
2023/08/10 03:55:11;;;;;;;4.97;3.30;;;;;;;13.08;88.63;102037.16;4964900;28;20023;-89
2023/08/10 03:57:36;;;;;;;4.38;3.00;;;;;;;13.06;89.24;102038.91;4969126;28;20089;-89
2023/08/10 04:00:03;;;;;;;8.20;3.28;;;;;;;13.04;88.85;102043.31;4969869;28;20474;-89
2023/08/10 04:02:29;;;;;;;3.97;2.85;;;;;;;13.03;89.30;102045.06;4961440;28;20087;-89
2023/08/10 04:04:54;;;;;;;5.10;2.83;;;;;;;13.05;89.14;102047.63;4969425;28;22800;-89
2023/08/10 04:07:19;;;;;;;4.70;2.72;;;;;;;13.04;89.61;102052.03;4966073;28;20035;-88
2023/08/10 04:09:47;;;;;;;5.80;3.03;;;;;;;13.05;89.59;102052.88;4964183;28;20039;-88
2023/08/10 04:12:13;;;;;;;5.85;2.75;;;;;;;13.05;89.80;102045.03;4964152;28;20039;-89
2023/08/10 04:14:38;;;;;;;3.88;2.38;;;;;;;13.09;89.78;102045.84;4964996;28;20035;-89
2023/08/10 04:17:03;;;;;;;5.32;2.67;;;;;;;13.13;89.06;102052.72;4968409;28;20406;-89
2023/08/10 04:19:30;;;;;;;4.65;2.40;;;;;;;13.13;88.95;102050.13;4968808;28;20045;-89
2023/08/10 04:21:56;;;;;;;4.60;2.75;;;;;;;13.12;89.01;102054.50;4965728;28;20018;-89
2023/08/10 04:24:21;;;;;;;5.15;3.00;;;;;;;13.13;89.14;102050.13;4963260;28;20348;-89
2023/08/10 04:26:46;;;;;;;4.72;3.10;;;;;;;13.13;89.33;102050.13;4966546;28;20030;-89
2023/08/10 04:29:12;;;;;;;5.05;2.60;;;;;;;13.12;89.32;102043.16;4966692;28;20026;-89
2023/08/10 04:31:37;;;;;;;5.07;2.88;;;;;;;13.10;89.73;102039.72;4965115;28;20394;-89
2023/08/10 04:34:02;;;;;;;3.60;2.72;;;;;;;13.10;89.94;102045.81;4965768;28;20022;-89
2023/08/10 04:36:28;;;;;;;4.03;2.50;;;;;;;13.12;89.65;102048.41;4966604;28;20034;-89
2023/08/10 04:38:53;;;;;;;3.83;2.75;;;;;;;13.09;89.57;102051.94;4964810;28;20046;-87
2023/08/10 04:41:18;;;;;;;4.68;2.53;;;;;;;13.06;89.73;102050.22;4960739;28;20031;-89
2023/08/10 04:43:43;;;;;;;5.53;2.78;;;;;;;13.04;90.27;102051.13;4968076;28;20380;-89
2023/08/10 04:46:09;;;;;;;9.30;2.83;;;;;;;13.03;90.50;102054.63;4967422;28;20031;-89
2023/08/10 04:48:34;;;;;;;4.43;2.65;;;;;;;13.05;90.06;102058.09;4951467;28;20828;-89
2023/08/10 04:51:00;;;;;;;9.20;2.88;;;;;;;13.03;90.66;102063.34;4963094;28;20047;-89
2023/08/10 04:53:25;;;;;;;4.72;2.60;;;;;;;13.05;90.93;102064.19;4966023;28;20054;-89
2023/08/10 04:55:51;;;;;;;3.55;2.58;;;;;;;13.07;91.11;102061.53;4948107;28;20039;-89
2023/08/10 04:58:16;;;;;;;4.13;2.40;;;;;;;13.08;90.45;102065.88;4968688;28;20042;-89
2023/08/10 05:00:41;;;;;;;4.68;2.90;;;;;;;13.11;90.12;102063.22;4966062;28;20364;-89
2023/08/10 05:03:06;;;;;;;4.78;2.75;;;;;;;13.12;90.20;102057.13;4969792;28;20117;-89
2023/08/10 05:05:32;;;;;;;5.68;2.90;;;;;;;13.13;90.44;102064.06;4965243;28;20022;-89
2023/08/10 05:07:57;;;;;;;4.47;2.78;;;;;;;13.15;91.03;102070.09;4969844;28;20030;-89
2023/08/10 05:10:23;;;;;;;4.30;2.90;;;;;;;13.16;91.02;102064.00;4970133;28;20098;-88
2023/08/10 05:12:51;;;;;;;4.85;2.72;;;;;;;13.18;91.56;102070.06;4969821;28;20063;-89
2023/08/10 05:15:16;;;;;;;5.38;2.75;;;;;;;13.24;92.08;102078.69;4968438;28;20077;-89
2023/08/10 05:17:42;;;;;;;4.07;3.17;;;;;;;13.28;91.35;102070.75;4974007;28;20034;-89
2023/08/10 05:20:10;;;;;;;4.60;3.00;;;;;;;13.32;91.45;102079.44;4970718;28;20364;-89
2023/08/10 05:22:40;;;;;;;4.70;3.30;;;;;;;13.36;91.57;102062.78;4966956;28;20078;-89
2023/08/10 05:25:08;;;;;;;4.20;3.00;;;;;;;13.38;92.03;102068.84;4938223;28;20447;-89
2023/08/10 05:27:33;;;;;;;5.50;3.38;;;;;;;13.41;92.17;102068.84;4947327;28;20034;-89
2023/08/10 05:29:58;;;;;;;4.28;3.00;;;;;;;13.44;92.26;102070.53;4971540;28;20586;-89
2023/08/10 05:32:24;;;;;;;6.28;3.53;;;;;;;13.48;92.27;102072.19;4965404;28;20038;-89
2023/08/10 05:34:49;;;;;;;5.38;3.20;;;;;;;13.50;92.74;102073.88;4964224;28;20038;-89
2023/08/10 05:37:15;;;;;;;6.50;3.33;;;;;;;13.55;93.03;102068.59;4964157;28;20043;-89
2023/08/10 05:39:40;;;;;;;7.13;3.88;;;;;;;13.58;92.80;102073.75;4965992;28;20058;-89
2023/08/10 05:42:05;;;;;;;7.95;3.85;;;;;;;13.60;93.32;102069.34;4966734;28;20063;-89
2023/08/10 05:44:31;;;;;;;5.45;3.63;;;;;;;13.61;92.95;102063.22;4968303;28;20033;-90
2023/08/10 05:46:56;;;;;;;6.03;3.40;;;;;;;13.64;92.59;102067.56;4967319;28;20374;-89
2023/08/10 05:49:21;;;;;;;5.53;3.40;;;;;;;13.66;93.02;102057.94;4967124;28;20042;-89
2023/08/10 05:51:47;;;;;;;6.68;3.60;;;;;;;13.66;93.02;102056.16;4931360;28;1015951;-89
2023/08/10 05:54:12;;;;;;;6.28;3.80;;;;;;;13.67;93.27;102057.00;4967177;28;20081;-89
2023/08/10 05:56:37;;;;;;;5.25;3.55;;;;;;;13.70;93.05;102062.19;4954415;28;20482;-90
2023/08/10 05:59:03;;;;;;;7.80;3.90;;;;;;;13.72;93.18;102060.41;4966828;28;20166;-89
2023/08/10 06:01:28;;;;;;;5.07;3.45;;;;;;;13.78;93.28;102062.03;4948882;28;20042;-89
2023/08/10 06:03:53;;;;;;;5.32;3.67;;;;;;;13.82;93.62;102061.09;4964970;28;20074;-89
2023/08/10 06:06:19;;;;;;;7.18;3.75;;;;;;;13.87;93.02;102067.09;4964882;28;20038;-89
2023/08/10 06:08:44;;;;;;;5.32;3.60;;;;;;;13.90;92.30;102063.56;4968815;28;20058;-89
2023/08/10 06:11:11;;;;;;;6.65;3.80;;;;;;;13.95;92.75;102065.19;4968699;28;20033;-89
2023/08/10 06:13:38;;;;;;;5.85;3.55;;;;;;;13.98;92.88;102056.44;4972564;28;20027;-89
2023/08/10 06:16:04;;;;;;;5.78;3.85;;;;;;;14.02;92.82;102058.06;4972397;28;20394;-89
2023/08/10 06:18:29;;;;;;;7.40;3.63;;;;;;;14.08;93.50;102063.19;4970135;28;20090;-90
2023/08/10 06:20:54;;;;;;;5.95;3.70;;;;;;;14.13;93.50;102064.84;4969010;28;21223;-89
2023/08/10 06:23:20;;;;;;;7.20;3.65;;;;;;;14.20;94.00;102066.44;4967793;28;20063;-89
2023/08/10 06:25:47;;;;;;;6.28;3.80;;;;;;;14.25;94.17;102069.81;4968232;28;20035;-90
2023/08/10 06:28:12;;;;;;;6.38;3.83;;;;;;;14.31;94.31;102069.69;4967359;28;20029;-89
2023/08/10 06:30:37;;;;;;;5.43;3.75;;;;;;;14.36;94.24;102066.97;4968536;28;20018;-90
2023/08/10 06:33:03;;;;;;;6.07;3.92;;;;;;;14.41;94.67;102068.59;4965998;28;20026;-89
2023/08/10 06:35:28;;;;;;;5.65;3.63;;;;;;;14.47;94.56;102069.34;4967731;28;20027;-89
2023/08/10 06:37:54;;;;;;;6.03;3.80;;;;;;;14.51;93.97;102068.41;4969020;28;21539;-89
2023/08/10 06:40:20;;;;;;;5.90;3.63;;;;;;;14.56;93.10;102069.13;4971825;28;20030;-90
2023/08/10 06:42:45;;;;;;;6.22;3.80;;;;;;;14.59;92.91;102069.06;4970969;28;20101;-89
2023/08/10 06:45:10;;;;;;;5.40;3.47;;;;;;;14.63;92.74;102067.22;4967650;28;20507;-89
2023/08/10 06:47:36;;;;;;;5.53;3.45;;;;;;;14.68;92.96;102063.66;4968540;28;20049;-89
2023/08/10 06:50:01;;;;;;;5.53;3.05;;;;;;;14.73;92.43;102060.94;4970324;28;20030;-89
2023/08/10 06:52:27;;;;;;;6.50;3.28;;;;;;;14.77;91.51;102056.47;4970878;28;20034;-90
2023/08/10 06:54:53;;;;;;;6.68;3.30;;;;;;;14.80;91.92;102054.63;4969219;28;20043;-89
2023/08/10 06:57:19;;;;;;;4.30;3.10;;;;;;;14.87;91.49;102058.84;4971955;28;20131;-89
2023/08/10 06:59:45;;;;;;;4.63;2.72;;;;;;;14.93;92.00;102055.19;4969274;28;20030;-89
2023/08/10 07:02:10;;;;;;;4.90;3.00;;;;;;;15.01;91.18;102053.25;4977059;28;20034;-89
2023/08/10 07:04:35;;;;;;;5.05;3.13;;;;;;;15.12;92.25;102054.75;4983231;28;20110;-89
2023/08/10 07:07:01;;;;;;;4.72;2.90;;;;;;;15.21;92.06;102051.03;4969140;28;20104;-89
2023/08/10 07:09:26;;;;;;;5.03;3.38;;;;;;;15.28;91.31;102055.22;4964141;28;20026;-89
2023/08/10 07:11:52;;;;;;;5.95;3.13;;;;;;;15.35;90.69;102046.28;4973731;28;20037;-89
2023/08/10 07:14:17;;;;;;;5.97;3.17;;;;;;;15.41;90.21;102046.13;4976139;28;20019;-89
2023/08/10 07:16:42;;;;;;;5.97;3.22;;;;;;;15.47;90.75;102050.34;4971482;28;20087;-89
2023/08/10 07:19:08;;;;;;;6.18;3.63;;;;;;;15.52;90.73;102034.47;4976156;28;20044;-89
2023/08/10 07:21:33;;;;;;;5.10;3.33;;;;;;;15.57;91.05;102043.94;4974420;28;20027;-89
2023/08/10 07:23:58;;;;;;;5.18;3.33;;;;;;;15.63;89.76;102051.63;4975399;28;20390;-88
2023/08/10 07:26:23;;;;;;;5.88;3.33;;;;;;;15.66;86.18;102055.09;4963918;28;20031;-89
2023/08/10 07:28:49;;;;;;;4.65;2.85;;;;;;;15.68;86.63;102062.00;4974817;28;20033;-89
2023/08/10 07:31:14;;;;;;;6.70;3.30;;;;;;;15.72;85.46;102062.75;4957008;28;20086;-90
2023/08/10 07:33:39;;;;;;;4.57;2.60;;;;;;;15.73;83.84;102064.50;4973108;28;20033;-89
2023/08/10 07:36:06;;;;;;;4.93;2.70;;;;;;;15.76;84.33;102059.16;4967818;28;20031;-88
2023/08/10 07:38:32;;;;;;;5.07;2.78;;;;;;;15.78;83.14;102057.34;4969945;28;20039;-89
2023/08/10 07:40:57;;;;;;;5.18;3.10;;;;;;;15.81;82.25;102056.41;4969701;28;20505;-89
2023/08/10 07:43:22;;;;;;;5.53;3.20;;;;;;;15.85;82.78;102058.94;4970388;28;20470;-89
2023/08/10 07:45:48;;;;;;;5.05;2.55;;;;;;;15.87;82.49;102057.16;4967789;28;20030;-89
2023/08/10 07:48:13;;;;;;;3.83;2.50;;;;;;;15.91;80.23;102058.75;4949857;28;20031;-90
2023/08/10 07:50:39;;;;;;;4.30;2.20;;;;;;;15.92;77.32;102068.34;4968844;28;20068;-89
2023/08/10 07:53:04;;;;;;;3.47;2.17;;;;;;;15.96;76.04;102066.53;4970459;28;20041;-89
2023/08/10 07:55:30;;;;;;;3.40;2.17;;;;;;;15.99;76.61;102065.56;4970872;28;20470;-89
2023/08/10 07:57:55;;;;;;;3.15;2.10;;;;;;;16.03;77.06;102067.19;4974128;28;20035;-88
2023/08/10 08:00:20;;;;;;;3.45;2.20;;;;;;;16.04;74.88;102064.50;4972080;28;20031;-89
2023/08/10 08:02:46;;;;;;;5.20;2.30;;;;;;;16.10;76.59;102068.72;4969273;28;20038;-89
2023/08/10 08:05:11;;;;;;;4.13;2.17;;;;;;;16.14;76.03;102066.88;4968624;28;20030;-89
2023/08/10 08:07:37;;;;;;;2.67;1.77;;;;;;;16.17;72.30;102072.91;4970119;28;20035;-89
2023/08/10 08:10:03;;;;;;;3.60;2.03;;;;;;;16.21;76.41;102071.91;4970884;28;20402;-89
2023/08/10 08:12:29;;;;;;;3.33;2.13;;;;;;;16.22;67.86;102070.13;4967559;28;20038;-90
2023/08/10 08:14:54;;;;;;;2.65;1.70;;;;;;;16.26;68.60;102069.13;4970654;28;20027;-91
2023/08/10 08:17:21;;;;;;;2.92;1.75;;;;;;;16.31;68.55;102066.38;4972869;28;20039;-90
2023/08/10 08:19:46;;;;;;;2.67;1.50;;;;;;;16.35;63.69;102065.38;4971343;28;20035;-91
2023/08/10 08:22:11;;;;;;;1.33;1.20;;;;;;;16.41;67.47;102070.41;4966526;28;20487;-91
2023/08/10 08:24:38;;;;;;;2.28;1.33;;;;;;;16.45;65.87;102065.97;4971768;28;20030;-90
2023/08/10 08:27:03;;;;;;;2.28;1.30;;;;;;;16.49;67.22;102064.94;4964088;28;20030;-89
2023/08/10 08:29:31;;;;;;;2.08;1.08;;;;;;;16.54;65.30;102065.66;4964701;28;20035;-90
2023/08/10 08:31:56;;;;;;;2.17;1.30;;;;;;;16.59;65.56;102073.38;4967280;28;20034;-91
2023/08/10 08:34:21;;;;;;;2.63;1.30;;;;;;;16.64;65.68;102079.38;4967163;28;20026;-90
2023/08/10 08:36:47;;;;;;;2.13;1.30;;;;;;;16.68;66.82;102075.75;4964271;28;20045;-90
2023/08/10 08:39:12;;;;;;;2.22;1.30;;;;;;;16.74;69.94;102067.63;4965453;28;20049;-90
2023/08/10 08:41:38;;;;;;;2.10;1.23;;;;;;;16.78;65.93;102074.53;4970550;28;20026;-89
2023/08/10 08:44:06;;;;;;;2.35;1.27;;;;;;;16.81;68.02;102069.19;4969538;28;20371;-89
2023/08/10 08:46:32;;;;;;;4.10;1.50;;;;;;;16.87;68.21;102064.63;4966741;28;20501;-90
2023/08/10 08:48:58;;;;;;;2.72;1.70;;;;;;;16.91;67.22;102061.00;4968707;28;20557;-89
2023/08/10 08:51:23;;;;;;;2.88;1.65;;;;;;;16.97;69.46;102068.72;4966300;28;20075;-89
2023/08/10 08:53:51;;;;;;;3.25;1.80;;;;;;;17.02;71.07;102063.28;4965371;28;20498;-89
2023/08/10 08:56:16;;;;;;;2.67;1.60;;;;;;;17.06;68.57;102063.16;4964804;28;20023;-87
2023/08/10 08:58:42;;;;;;;3.08;1.27;;;;;;;17.11;70.22;102061.22;4964635;28;20218;-89
2023/08/10 09:01:08;;;;;;;2.70;1.23;;;;;;;17.17;68.59;102061.94;4966963;28;20035;-88
2023/08/10 09:03:33;;;;;;;2.53;1.40;;;;;;;17.22;69.28;102060.00;4965818;28;20030;-89
2023/08/10 09:06:00;;;;;;;2.72;1.42;;;;;;;17.27;68.87;102065.94;4969645;28;20044;-88
2023/08/10 09:08:26;;;;;;;2.72;1.48;;;;;;;17.35;69.08;102060.41;4968381;28;20043;-89
2023/08/10 09:10:53;;;;;;;3.35;1.67;;;;;;;17.41;67.71;102061.09;4968163;28;20040;-89
2023/08/10 09:13:21;;;;;;;3.30;1.65;;;;;;;17.51;69.95;102058.97;4952301;28;20074;-89
2023/08/10 09:16:02;;;;;;;1.83;1.42;;;;;;;17.60;69.02;102052.50;4968406;28;20449;-89
2023/08/10 09:18:32;;;;;;;2.90;1.63;;;;;;;17.68;70.12;102044.34;4969254;28;20037;-88
2023/08/10 09:21:07;;;;;;;2.20;1.40;;;;;;;17.72;67.69;102044.19;4948883;28;20110;-88
2023/08/10 09:23:35;;;;;;;3.45;1.67;;;;;;;17.74;66.88;102042.38;4966899;28;20409;-90
2023/08/10 09:26:00;;;;;;;2.28;1.33;;;;;;;17.79;67.16;102041.31;4965451;28;21083;-88
2023/08/10 09:28:28;;;;;;;3.30;1.40;;;;;;;17.86;69.62;102041.03;4964291;28;20734;-88
2023/08/10 09:30:56;;;;;;;2.55;1.23;;;;;;;17.91;67.16;102043.50;4965407;28;20107;-88
2023/08/10 09:33:31;;;;;;;3.50;1.20;;;;;;;17.97;67.00;102043.25;4966047;28;20103;-89
2023/08/10 09:36:00;;;;;;;1.50;1.10;;;;;;;18.03;67.18;102053.59;4947786;28;20150;-89
2023/08/10 09:38:26;;;;;;;2.15;1.10;;;;;;;18.10;66.19;102050.75;4965152;28;20027;-88
2023/08/10 09:41:07;;;;;;;2.90;1.30;;;;;;;18.19;66.55;102045.13;4965577;28;20031;-89
2023/08/10 09:43:32;;;;;;;2.25;1.10;;;;;;;18.25;65.25;102052.78;4964246;28;20019;-90
2023/08/10 09:46:05;;;;;;;2.70;1.30;;;;;;;18.33;65.75;102042.78;4963803;28;20027;-91
2023/08/10 09:48:35;;;;;;;4.28;1.10;;;;;;;18.45;65.14;102040.59;4962989;28;20039;-91
2023/08/10 09:51:02;;;;;;;1.67;1.20;;;;;;;18.57;63.73;102041.88;4963998;28;20054;-89
2023/08/10 09:53:28;;;;;;;2.15;1.20;;;;;;;18.72;65.80;102041.25;4964596;28;20475;-88
2023/08/10 09:55:53;;;;;;;2.22;1.00;;;;;;;18.90;67.72;102050.19;4966217;28;20041;-88
2023/08/10 09:58:19;;;;;;;1.80;1.20;;;;;;;19.05;64.47;102047.88;4963956;28;20109;-88
2023/08/10 10:00:45;;;;;;;2.35;1.40;;;;;;;19.16;63.73;102039.50;4962603;28;20487;-89
2023/08/10 10:03:11;;;;;;;2.28;1.38;;;;;;;19.23;62.50;102033.88;4962023;28;20061;-90
2023/08/10 10:05:36;;;;;;;2.55;1.38;;;;;;;19.28;61.66;102036.31;4964624;28;20043;-89
2023/08/10 10:08:06;;;;;;;2.10;1.45;;;;;;;19.31;61.36;102030.91;4963189;28;20474;-88
2023/08/10 10:10:35;;;;;;;3.38;1.40;;;;;;;19.34;60.22;102033.41;4963924;28;20027;-90
2023/08/10 10:13:04;;;;;;;2.03;1.33;;;;;;;19.40;60.30;102053.41;4971647;28;20035;-89
2023/08/10 10:15:30;;;;;;;2.10;1.40;;;;;;;19.42;59.95;102041.84;4968363;28;20109;-88
2023/08/10 10:17:56;;;;;;;2.25;1.50;;;;;;;19.47;62.54;102039.00;4969470;28;20154;-89
2023/08/10 10:20:22;;;;;;;2.78;1.38;;;;;;;19.52;61.06;102042.28;4966227;28;20063;-88
2023/08/10 10:22:47;;;;;;;2.30;1.48;;;;;;;19.55;61.38;102041.31;4970047;28;20041;-88
2023/08/10 10:25:15;;;;;;;2.15;1.40;;;;;;;19.55;60.73;102046.59;4969390;28;20113;-90
2023/08/10 10:27:40;;;;;;;3.20;1.40;;;;;;;19.54;61.74;102045.72;4970419;28;20122;-90
2023/08/10 10:30:16;;;;;;;2.03;1.40;;;;;;;19.52;62.10;102058.13;4965256;28;20138;-90
2023/08/10 10:32:47;;;;;;;2.65;1.42;;;;;;;19.49;61.64;102060.06;4970936;28;20118;-88
2023/08/10 10:35:32;;;;;;;2.63;1.27;;;;;;;19.49;62.42;102058.25;4966648;28;20118;-86
2023/08/10 10:37:58;;;;;;;2.25;1.17;;;;;;;19.48;61.47;102063.63;4968719;28;20033;-86
2023/08/10 10:40:25;;;;;;;1.83;1.20;;;;;;;19.49;61.17;102060.91;4968014;28;20107;-86
2023/08/10 10:43:03;;;;;;;2.83;1.20;;;;;;;19.50;62.19;102059.97;4966986;28;20162;-87
2023/08/10 10:45:33;;;;;;;1.80;1.13;;;;;;;19.52;58.79;102058.13;4967639;28;20027;-86
2023/08/10 10:47:58;;;;;;;2.00;1.00;;;;;;;19.55;60.68;102050.09;4968578;28;20073;-87
2023/08/10 10:50:27;;;;;;;1.08;0.95;;;;;;;19.59;59.67;102048.16;4967798;28;20035;-86
2023/08/10 10:53:03;;;;;;;2.90;1.00;;;;;;;19.64;59.94;102048.81;4968516;28;20496;-85
2023/08/10 10:55:37;;;;;;;3.60;1.02;;;;;;;19.68;58.96;102054.81;4967852;28;20490;-86
2023/08/10 10:58:04;;;;;;;1.73;1.10;;;;;;;19.72;57.85;102048.47;4967266;28;20027;-86
2023/08/10 11:00:32;;;;;;;2.08;1.25;;;;;;;19.76;58.80;102047.41;4967379;28;20039;-87
2023/08/10 11:02:58;;;;;;;1.88;0.95;;;;;;;19.82;58.90;102052.41;4969235;28;20466;-85
2023/08/10 11:05:23;;;;;;;1.77;1.00;;;;;;;19.85;57.75;102049.63;4967532;28;20042;-87
2023/08/10 11:07:50;;;;;;;1.52;1.00;;;;;;;19.91;59.68;102053.78;4971143;28;20383;-86
2023/08/10 11:10:17;;;;;;;1.67;0.90;;;;;;;19.93;59.13;102046.66;4953822;28;20105;-86
2023/08/10 11:12:44;;;;;;;2.70;1.13;;;;;;;20.00;60.83;102052.50;4969333;28;20035;-86
2023/08/10 11:15:12;;;;;;;1.92;1.10;;;;;;;20.06;61.53;102044.31;4971038;28;20026;-86
2023/08/10 11:17:38;;;;;;;3.03;1.10;;;;;;;;;;4972077;28;20033;-86
2023/08/10 11:20:18;;;;;;;2.58;1.10;;;;;;;20.21;59.58;102045.38;4972485;28;20031;-86
2023/08/10 11:22:47;;;;;;;2.25;1.15;;;;;;;20.30;58.96;102038.81;4970611;28;20030;-85